עמוד ראשי
METAR-TAF:

METAR-TAF

שדות תעופה :

כרמאנשאה, איראן

קו רוחב: 34-16N, קו אורך: 047-07E, גובה: 1320מטר

תצפית מזג אוויר נוכחית

הדו"ח נערך לפני 48דקות, בשעה 23:00 UTC
רוח 2קשר מכיוון מזרח
טמפרטורת 25 צלסיוס
לחות 28%
לחץ 1008 hPa
ראות 10 קילומטר או יותר
ללא עננים שבסיסם נמוך מ 5000 רגל או קומולונימבוס

METAR: OICC 222300Z 10002KT CAVOK 25/05 Q1008 A2978

זמן: 04:18 (23:48 UTC)

תחזית

הדו"ח נערך לפני 3 שעות ו 33דקות, בשעה 20:15 UTC
תחזית בתוקף מ 22 ב 21 UTC עד 23 ב 06 UTC
רוח 6קשר מכיוון מערב/צפון-מערב
ראות: 8000מטר

TAF: OICC 222015Z 2221/2306 30006KT 8000 NSC

תצפיות ותחזיות מזג אוויר לגבי יותר מ- 4,000 שדות תעופה ברחבי העולם. דוחות METAR ו- TAF.

התחנות הזמינות מסומנות בנקודות צהובות ואדומות על גבי המפה.

העבר את העכבר לנקודה הצבעונית על מנת לראות את שם התחנה.

לאחר מכן, לחץ כדי לראות את תוכן ואת תחזיות מזג האוויר.

כדי לשנות את המפה: לחץ על הכפתורים הירוקים עם הפלוס השחור כדי להתקרב; על הכפתור הירוק עם המקף כדי להתרחק; או בחיצים הירוקים למפות סמוכות.


METAR-TAF: